sensor_id;sensor_type;location;lat;lon;timestamp;pressure;altitude;pressure_sealevel;temperature;humidity
72685;BME280;61365;52.162;4.500;2022-12-16T00:01:24;101037.41;;;1.99;89.73
72685;BME280;61365;52.162;4.500;2022-12-16T00:03:54;101044.16;;;1.95;90.28
72685;BME280;61365;52.162;4.500;2022-12-16T00:06:23;101043.19;;;2.16;89.84
72685;BME280;61365;52.162;4.500;2022-12-16T00:08:51;101040.81;;;1.98;89.61
72685;BME280;61365;52.162;4.500;2022-12-16T00:11:18;101042.06;;;2.09;89.22
72685;BME280;61365;52.162;4.500;2022-12-16T00:13:45;101051.72;;;1.89;90.02
72685;BME280;61365;52.162;4.500;2022-12-16T00:16:14;101048.88;;;1.83;90.01
72685;BME280;61365;52.162;4.500;2022-12-16T00:18:42;101050.44;;;1.79;90.50
72685;BME280;61365;52.162;4.500;2022-12-16T00:21:10;101048.19;;;1.87;90.46
72685;BME280;61365;52.162;4.500;2022-12-16T00:23:36;101046.56;;;1.90;89.44
72685;BME280;61365;52.162;4.500;2022-12-16T00:26:07;101047.56;;;1.71;90.01
72685;BME280;61365;52.162;4.500;2022-12-16T00:28:34;101047.56;;;1.48;91.76
72685;BME280;61365;52.162;4.500;2022-12-16T00:31:00;101051.22;;;1.76;90.17
72685;BME280;61365;52.162;4.500;2022-12-16T00:33:30;101058.28;;;1.58;90.84
72685;BME280;61365;52.162;4.500;2022-12-16T00:35:56;101059.16;;;1.58;91.39
72685;BME280;61365;52.162;4.500;2022-12-16T00:38:24;101057.63;;;1.63;90.99
72685;BME280;61365;52.162;4.500;2022-12-16T00:40:51;101067.69;;;1.56;90.89
72685;BME280;61365;52.162;4.500;2022-12-16T00:43:18;101061.31;;;1.47;90.36
72685;BME280;61365;52.162;4.500;2022-12-16T00:45:46;101072.91;;;1.57;89.85
72685;BME280;61365;52.162;4.500;2022-12-16T00:48:14;101075.63;;;1.60;89.10
72685;BME280;61365;52.162;4.500;2022-12-16T00:51:01;101063.75;;;1.65;89.37
72685;BME280;61365;52.162;4.500;2022-12-16T00:53:28;101075.03;;;1.68;89.07
72685;BME280;61365;52.162;4.500;2022-12-16T00:56:04;101072.72;;;1.53;89.63
72685;BME280;61365;52.162;4.500;2022-12-16T00:58:35;101077.22;;;1.57;89.62
72685;BME280;61365;52.162;4.500;2022-12-16T01:01:03;101084.66;;;1.49;89.54
72685;BME280;61365;52.162;4.500;2022-12-16T01:03:30;101079.28;;;1.44;89.14
72685;BME280;61365;52.162;4.500;2022-12-16T01:05:57;101073.28;;;1.67;88.34
72685;BME280;61365;52.162;4.500;2022-12-16T01:08:23;101075.97;;;1.47;89.11
72685;BME280;61365;52.162;4.500;2022-12-16T01:10:54;101074.09;;;1.65;88.30
72685;BME280;61365;52.162;4.500;2022-12-16T01:13:23;101070.44;;;1.60;87.93
72685;BME280;61365;52.162;4.500;2022-12-16T01:15:50;101074.06;;;1.43;87.36
72685;BME280;61365;52.162;4.500;2022-12-16T01:18:18;101073.94;;;1.40;87.30
72685;BME280;61365;52.162;4.500;2022-12-16T01:20:44;101074.31;;;1.49;87.29
72685;BME280;61365;52.162;4.500;2022-12-16T01:23:11;101077.84;;;1.51;85.75
72685;BME280;61365;52.162;4.500;2022-12-16T01:25:37;101085.13;;;1.61;84.95
72685;BME280;61365;52.162;4.500;2022-12-16T01:28:04;101092.88;;;1.39;86.29
72685;BME280;61365;52.162;4.500;2022-12-16T01:30:30;101095.63;;;1.43;86.24
72685;BME280;61365;52.162;4.500;2022-12-16T01:32:56;101102.78;;;1.49;84.69
72685;BME280;61365;52.162;4.500;2022-12-16T01:35:23;101106.75;;;1.41;84.73
72685;BME280;61365;52.162;4.500;2022-12-16T01:37:49;101112.56;;;1.35;84.72
72685;BME280;61365;52.162;4.500;2022-12-16T01:40:18;101116.31;;;1.43;84.89
72685;BME280;61365;52.162;4.500;2022-12-16T01:42:47;101121.88;;;1.53;83.23
72685;BME280;61365;52.162;4.500;2022-12-16T01:45:31;101122.19;;;1.39;84.28
72685;BME280;61365;52.162;4.500;2022-12-16T01:48:06;101128.16;;;1.59;82.59
72685;BME280;61365;52.162;4.500;2022-12-16T01:50:41;101141.28;;;1.64;81.99
72685;BME280;61365;52.162;4.500;2022-12-16T01:53:08;101138.66;;;1.62;82.02
72685;BME280;61365;52.162;4.500;2022-12-16T01:55:41;101134.38;;;1.63;81.23
72685;BME280;61365;52.162;4.500;2022-12-16T01:58:21;101141.59;;;1.29;82.63
72685;BME280;61365;52.162;4.500;2022-12-16T02:00:52;101143.31;;;1.29;82.76
72685;BME280;61365;52.162;4.500;2022-12-16T02:03:18;101150.13;;;1.27;82.71
72685;BME280;61365;52.162;4.500;2022-12-16T02:05:46;101150.06;;;1.46;81.69
72685;BME280;61365;52.162;4.500;2022-12-16T02:08:15;101146.09;;;1.55;81.41
72685;BME280;61365;52.162;4.500;2022-12-16T02:16:25;101153.28;;;1.41;81.58
72685;BME280;61365;52.162;4.500;2022-12-16T02:28:01;101165.59;;;1.25;81.52
72685;BME280;61365;52.162;4.500;2022-12-16T02:40:02;101172.84;;;1.14;81.49
72685;BME280;61365;52.162;4.500;2022-12-16T02:42:59;101177.97;;;1.13;81.85
72685;BME280;61365;52.162;4.500;2022-12-16T02:45:30;101170.72;;;1.45;79.96
72685;BME280;61365;52.162;4.500;2022-12-16T02:47:57;101186.09;;;1.42;79.96
72685;BME280;61365;52.162;4.500;2022-12-16T02:50:42;101170.41;;;1.37;79.67
72685;BME280;61365;52.162;4.500;2022-12-16T02:53:14;101175.03;;;1.25;79.55
72685;BME280;61365;52.162;4.500;2022-12-16T02:55:59;101177.66;;;1.26;80.07
72685;BME280;61365;52.162;4.500;2022-12-16T03:04:06;101190.53;;;1.25;79.33
72685;BME280;61365;52.162;4.500;2022-12-16T03:06:39;101197.03;;;1.15;79.18
72685;BME280;61365;52.162;4.500;2022-12-16T03:09:11;101202.69;;;1.06;79.65
72685;BME280;61365;52.162;4.500;2022-12-16T03:11:42;101199.66;;;1.16;79.78
72685;BME280;61365;52.162;4.500;2022-12-16T03:14:14;101202.19;;;1.15;79.57
72685;BME280;61365;52.162;4.500;2022-12-16T03:16:45;101205.53;;;1.12;79.99
72685;BME280;61365;52.162;4.500;2022-12-16T03:19:14;101206.41;;;1.13;79.32
72685;BME280;61365;52.162;4.500;2022-12-16T03:21:45;101205.78;;;1.18;79.04
72685;BME280;61365;52.162;4.500;2022-12-16T03:24:25;101205.59;;;1.14;79.39
72685;BME280;61365;52.162;4.500;2022-12-16T03:29:42;101202.13;;;0.94;80.38
72685;BME280;61365;52.162;4.500;2022-12-16T03:32:20;101198.53;;;1.10;79.51
72685;BME280;61365;52.162;4.500;2022-12-16T03:37:35;101211.13;;;1.02;80.02
72685;BME280;61365;52.162;4.500;2022-12-16T03:40:06;101215.38;;;1.01;79.61
72685;BME280;61365;52.162;4.500;2022-12-16T03:42:36;101218.88;;;0.82;80.99
72685;BME280;61365;52.162;4.500;2022-12-16T03:45:05;101223.69;;;0.74;80.74
72685;BME280;61365;52.162;4.500;2022-12-16T03:47:36;101223.91;;;0.79;81.04
72685;BME280;61365;52.162;4.500;2022-12-16T03:50:03;101230.72;;;0.59;81.78
72685;BME280;61365;52.162;4.500;2022-12-16T03:52:29;101226.31;;;0.56;82.23
72685;BME280;61365;52.162;4.500;2022-12-16T03:54:56;101230.25;;;0.68;81.59
72685;BME280;61365;52.162;4.500;2022-12-16T03:57:25;101230.75;;;0.79;81.17
72685;BME280;61365;52.162;4.500;2022-12-16T03:59:52;101233.50;;;0.64;81.58
72685;BME280;61365;52.162;4.500;2022-12-16T04:02:18;101241.31;;;0.46;82.74
72685;BME280;61365;52.162;4.500;2022-12-16T04:04:44;101238.66;;;0.44;83.30
72685;BME280;61365;52.162;4.500;2022-12-16T04:07:11;101242.66;;;0.37;83.19
72685;BME280;61365;52.162;4.500;2022-12-16T04:09:47;101243.75;;;0.42;83.67
72685;BME280;61365;52.162;4.500;2022-12-16T04:12:14;101245.53;;;0.43;83.61
72685;BME280;61365;52.162;4.500;2022-12-16T04:14:59;101242.28;;;0.48;82.79
72685;BME280;61365;52.162;4.500;2022-12-16T04:17:51;101240.59;;;0.68;80.99
72685;BME280;61365;52.162;4.500;2022-12-16T04:20:41;101241.38;;;0.47;82.22
72685;BME280;61365;52.162;4.500;2022-12-16T04:23:29;101245.03;;;0.70;80.99
72685;BME280;61365;52.162;4.500;2022-12-16T04:26:15;101241.72;;;0.55;81.43
72685;BME280;61365;52.162;4.500;2022-12-16T04:28:42;101248.97;;;0.44;82.61
72685;BME280;61365;52.162;4.500;2022-12-16T04:31:08;101247.78;;;0.55;81.81
72685;BME280;61365;52.162;4.500;2022-12-16T04:33:37;101247.34;;;0.64;81.41
72685;BME280;61365;52.162;4.500;2022-12-16T04:36:23;101253.72;;;0.35;82.26
72685;BME280;61365;52.162;4.500;2022-12-16T04:39:08;101257.31;;;0.38;82.22
72685;BME280;61365;52.162;4.500;2022-12-16T04:41:53;101260.88;;;0.40;82.58
72685;BME280;61365;52.162;4.500;2022-12-16T04:44:39;101263.59;;;0.25;82.73
72685;BME280;61365;52.162;4.500;2022-12-16T04:47:24;101266.78;;;0.20;83.30
72685;BME280;61365;52.162;4.500;2022-12-16T04:50:09;101269.94;;;0.14;83.63
72685;BME280;61365;52.162;4.500;2022-12-16T04:52:53;101278.94;;;0.22;83.62
72685;BME280;61365;52.162;4.500;2022-12-16T04:55:38;101276.50;;;0.07;83.45
72685;BME280;61365;52.162;4.500;2022-12-16T04:58:23;101269.00;;;0.12;83.88
72685;BME280;61365;52.162;4.500;2022-12-16T05:01:08;101278.47;;;0.13;83.74
72685;BME280;61365;52.162;4.500;2022-12-16T05:03:53;101286.22;;;0.31;83.25
72685;BME280;61365;52.162;4.500;2022-12-16T05:06:38;101286.03;;;0.44;82.18
72685;BME280;61365;52.162;4.500;2022-12-16T05:09:22;101294.78;;;0.48;82.49
72685;BME280;61365;52.162;4.500;2022-12-16T05:12:07;101291.09;;;0.43;82.11
72685;BME280;61365;52.162;4.500;2022-12-16T05:14:52;101288.66;;;0.46;82.24
72685;BME280;61365;52.162;4.500;2022-12-16T05:17:36;101299.13;;;0.67;80.83
72685;BME280;61365;52.162;4.500;2022-12-16T05:20:21;101302.44;;;0.65;80.89
72685;BME280;61365;52.162;4.500;2022-12-16T05:23:06;101299.19;;;0.69;81.30
72685;BME280;61365;52.162;4.500;2022-12-16T05:26:04;101302.38;;;0.63;81.14
72685;BME280;61365;52.162;4.500;2022-12-16T05:28:49;101307.78;;;0.50;82.48
72685;BME280;61365;52.162;4.500;2022-12-16T05:31:34;101309.78;;;0.55;82.82
72685;BME280;61365;52.162;4.500;2022-12-16T05:34:18;101314.84;;;0.54;83.08
72685;BME280;61365;52.162;4.500;2022-12-16T05:37:03;101313.06;;;0.71;82.14
72685;BME280;61365;52.162;4.500;2022-12-16T05:39:48;101322.03;;;0.59;81.95
72685;BME280;61365;52.162;4.500;2022-12-16T05:42:32;101325.19;;;0.72;81.63
72685;BME280;61365;52.162;4.500;2022-12-16T05:45:17;101325.94;;;0.69;82.25
72685;BME280;61365;52.162;4.500;2022-12-16T05:48:02;101325.91;;;0.87;81.25
72685;BME280;61365;52.162;4.500;2022-12-16T05:50:47;101328.88;;;0.77;81.03
72685;BME280;61365;52.162;4.500;2022-12-16T05:53:32;101336.47;;;0.74;81.76
72685;BME280;61365;52.162;4.500;2022-12-16T05:56:16;101345.44;;;0.63;82.70
72685;BME280;61365;52.162;4.500;2022-12-16T05:59:01;101336.72;;;0.61;83.32
72685;BME280;61365;52.162;4.500;2022-12-16T06:01:46;101333.84;;;0.54;84.06
72685;BME280;61365;52.162;4.500;2022-12-16T06:04:31;101341.63;;;0.56;83.97
72685;BME280;61365;52.162;4.500;2022-12-16T06:07:15;101346.16;;;0.60;84.09
72685;BME280;61365;52.162;4.500;2022-12-16T06:10:00;101346.94;;;0.59;84.03
72685;BME280;61365;52.162;4.500;2022-12-16T06:12:46;101340.81;;;0.57;84.09
72685;BME280;61365;52.162;4.500;2022-12-16T06:15:31;101345.84;;;0.54;84.07
72685;BME280;61365;52.162;4.500;2022-12-16T06:18:16;101353.09;;;0.61;84.07
72685;BME280;61365;52.162;4.500;2022-12-16T06:21:04;101352.47;;;0.67;84.34
72685;BME280;61365;52.162;4.500;2022-12-16T06:23:49;101357.28;;;0.77;83.58
72685;BME280;61365;52.162;4.500;2022-12-16T06:26:34;101364.44;;;0.83;83.90
72685;BME280;61365;52.162;4.500;2022-12-16T06:29:18;101361.38;;;0.92;83.37
72685;BME280;61365;52.162;4.500;2022-12-16T06:32:03;101357.72;;;0.86;83.19
72685;BME280;61365;52.162;4.500;2022-12-16T06:34:47;101357.31;;;0.97;83.01
72685;BME280;61365;52.162;4.500;2022-12-16T06:37:32;101366.69;;;0.95;83.18
72685;BME280;61365;52.162;4.500;2022-12-16T06:40:17;101371.22;;;0.99;83.21
72685;BME280;61365;52.162;4.500;2022-12-16T06:43:02;101375.63;;;1.01;82.74
72685;BME280;61365;52.162;4.500;2022-12-16T06:45:46;101374.38;;;1.11;83.38
72685;BME280;61365;52.162;4.500;2022-12-16T06:48:31;101376.97;;;1.11;82.98
72685;BME280;61365;52.162;4.500;2022-12-16T06:51:16;101381.22;;;1.11;82.88
72685;BME280;61365;52.162;4.500;2022-12-16T06:54:00;101389.78;;;1.10;82.75
72685;BME280;61365;52.162;4.500;2022-12-16T06:56:45;101389.19;;;1.15;82.53
72685;BME280;61365;52.162;4.500;2022-12-16T06:59:30;101394.81;;;1.07;82.57
72685;BME280;61365;52.162;4.500;2022-12-16T07:02:15;101396.84;;;1.12;82.30
72685;BME280;61365;52.162;4.500;2022-12-16T07:04:59;101401.84;;;1.09;81.81
72685;BME280;61365;52.162;4.500;2022-12-16T07:07:48;101399.31;;;1.11;81.79
72685;BME280;61365;52.162;4.500;2022-12-16T07:10:34;101405.47;;;1.13;81.23
72685;BME280;61365;52.162;4.500;2022-12-16T07:13:19;101411.91;;;1.03;82.10
72685;BME280;61365;52.162;4.500;2022-12-16T07:16:04;101414.13;;;0.95;82.52
72685;BME280;61365;52.162;4.500;2022-12-16T07:18:49;101417.81;;;1.00;82.15
72685;BME280;61365;52.162;4.500;2022-12-16T07:21:34;101428.00;;;0.97;82.19
72685;BME280;61365;52.162;4.500;2022-12-16T07:24:19;101442.59;;;0.97;81.96
72685;BME280;61365;52.162;4.500;2022-12-16T07:27:04;101433.84;;;0.93;82.68
72685;BME280;61365;52.162;4.500;2022-12-16T07:29:48;101444.91;;;1.09;82.62
72685;BME280;61365;52.162;4.500;2022-12-16T07:32:33;101454.22;;;1.05;82.06
72685;BME280;61365;52.162;4.500;2022-12-16T07:35:18;101462.41;;;0.96;82.25
72685;BME280;61365;52.162;4.500;2022-12-16T07:38:02;101462.47;;;0.98;82.14
72685;BME280;61365;52.162;4.500;2022-12-16T07:40:47;101459.31;;;0.85;82.44
72685;BME280;61365;52.162;4.500;2022-12-16T07:43:31;101463.44;;;0.82;82.83
72685;BME280;61365;52.162;4.500;2022-12-16T07:46:16;101468.84;;;0.86;83.23
72685;BME280;61365;52.162;4.500;2022-12-16T07:49:01;101471.19;;;1.00;83.02
72685;BME280;61365;52.162;4.500;2022-12-16T07:51:46;101476.81;;;0.91;82.75
72685;BME280;61365;52.162;4.500;2022-12-16T07:54:31;101473.84;;;0.83;83.47
72685;BME280;61365;52.162;4.500;2022-12-16T07:57:29;101481.50;;;0.82;83.71
72685;BME280;61365;52.162;4.500;2022-12-16T08:00:14;101485.97;;;0.84;83.48
72685;BME280;61365;52.162;4.500;2022-12-16T08:02:59;101495.56;;;0.87;82.69
72685;BME280;61365;52.162;4.500;2022-12-16T08:05:44;101504.09;;;0.86;82.38
72685;BME280;61365;52.162;4.500;2022-12-16T08:08:28;101503.59;;;0.93;81.61
72685;BME280;61365;52.162;4.500;2022-12-16T08:11:13;101500.94;;;1.10;80.56
72685;BME280;61365;52.162;4.500;2022-12-16T08:13:58;101498.66;;;1.34;80.76
72685;BME280;61365;52.162;4.500;2022-12-16T08:16:42;101504.91;;;1.39;82.20
72685;BME280;61365;52.162;4.500;2022-12-16T08:19:27;101502.91;;;1.52;83.28
72685;BME280;61365;52.162;4.500;2022-12-16T08:22:12;101509.69;;;1.68;82.66
72685;BME280;61365;52.162;4.500;2022-12-16T08:24:56;101507.66;;;1.80;83.10
72685;BME280;61365;52.162;4.500;2022-12-16T08:27:42;101501.94;;;2.07;82.24
72685;BME280;61365;52.162;4.500;2022-12-16T08:30:27;101506.16;;;1.85;78.25
72685;BME280;61365;52.162;4.500;2022-12-16T08:33:12;101500.28;;;1.88;77.74
72685;BME280;61365;52.162;4.500;2022-12-16T08:35:57;101507.13;;;1.87;77.08
72685;BME280;61365;52.162;4.500;2022-12-16T08:38:43;101510.53;;;1.86;77.26
72685;BME280;61365;52.162;4.500;2022-12-16T08:41:28;101510.81;;;1.92;77.20
72685;BME280;61365;52.162;4.500;2022-12-16T08:44:13;101513.88;;;1.84;75.89
72685;BME280;61365;52.162;4.500;2022-12-16T08:46:58;101508.97;;;1.90;78.93
72685;BME280;61365;52.162;4.500;2022-12-16T08:49:42;101506.72;;;2.17;77.74
72685;BME280;61365;52.162;4.500;2022-12-16T08:52:27;101519.34;;;2.29;75.91
72685;BME280;61365;52.162;4.500;2022-12-16T08:55:12;101525.06;;;2.22;76.24
72685;BME280;61365;52.162;4.500;2022-12-16T08:57:57;101528.25;;;1.97;76.65
72685;BME280;61365;52.162;4.500;2022-12-16T09:00:42;101533.97;;;2.09;75.57
72685;BME280;61365;52.162;4.500;2022-12-16T09:03:30;101533.97;;;2.29;75.81
72685;BME280;61365;52.162;4.500;2022-12-16T09:06:15;101540.34;;;2.35;75.11
72685;BME280;61365;52.162;4.500;2022-12-16T09:09:00;101537.50;;;2.70;73.41
72685;BME280;61365;52.162;4.500;2022-12-16T09:11:44;101544.44;;;2.92;72.25
72685;BME280;61365;52.162;4.500;2022-12-16T09:14:29;101538.44;;;3.14;71.90
72685;BME280;61365;52.162;4.500;2022-12-16T09:17:14;101543.47;;;3.10;71.22
72685;BME280;61365;52.162;4.500;2022-12-16T09:19:58;101548.22;;;3.43;70.05
72685;BME280;61365;52.162;4.500;2022-12-16T09:22:43;101551.63;;;3.42;69.39
72685;BME280;61365;52.162;4.500;2022-12-16T09:25:28;101555.72;;;3.14;70.50
72685;BME280;61365;52.162;4.500;2022-12-16T09:28:13;101561.72;;;3.57;68.70
72685;BME280;61365;52.162;4.500;2022-12-16T09:30:58;101558.38;;;3.37;70.30
72685;BME280;61365;52.162;4.500;2022-12-16T09:33:42;101568.63;;;3.78;68.00
72685;BME280;61365;52.162;4.500;2022-12-16T09:36:27;101575.91;;;3.88;67.34
72685;BME280;61365;52.162;4.500;2022-12-16T09:39:12;101577.63;;;3.87;67.68
72685;BME280;61365;52.162;4.500;2022-12-16T09:51:34;101599.94;;;4.29;65.82
72685;BME280;61365;52.162;4.500;2022-12-16T09:54:23;101596.84;;;4.38;63.62
72685;BME280;61365;52.162;4.500;2022-12-16T09:57:12;101601.72;;;4.53;63.62
72685;BME280;61365;52.162;4.500;2022-12-16T10:00:02;101599.81;;;4.49;64.10
72685;BME280;61365;52.162;4.500;2022-12-16T10:02:51;101610.47;;;4.32;65.08
72685;BME280;61365;52.162;4.500;2022-12-16T10:25:21;101623.84;;;4.43;63.83
72685;BME280;61365;52.162;4.500;2022-12-16T10:28:44;101630.97;;;4.25;64.69
72685;BME280;61365;52.162;4.500;2022-12-16T10:31:36;101626.94;;;4.57;62.30
72685;BME280;61365;52.162;4.500;2022-12-16T10:34:31;101632.22;;;4.59;62.93
72685;BME280;61365;52.162;4.500;2022-12-16T10:40:29;101631.38;;;4.35;63.01
72685;BME280;61365;52.162;4.500;2022-12-16T10:43:34;101629.66;;;4.36;63.14
72685;BME280;61365;52.162;4.500;2022-12-16T10:46:25;101631.38;;;4.35;63.22
72685;BME280;61365;52.162;4.500;2022-12-16T10:49:16;101628.53;;;4.52;63.28
72685;BME280;61365;52.162;4.500;2022-12-16T10:52:00;101634.91;;;4.38;63.95
72685;BME280;61365;52.162;4.500;2022-12-16T10:55:09;101636.22;;;4.49;62.52
72685;BME280;61365;52.162;4.500;2022-12-16T10:58:55;101630.50;;;4.59;62.20
72685;BME280;61365;52.162;4.500;2022-12-16T11:04:47;101632.94;;;4.55;62.33
72685;BME280;61365;52.162;4.500;2022-12-16T11:07:49;101635.59;;;4.56;61.47
72685;BME280;61365;52.162;4.500;2022-12-16T11:10:42;101640.69;;;4.30;63.39
72685;BME280;61365;52.162;4.500;2022-12-16T11:13:33;101637.78;;;4.45;63.24
72685;BME280;61365;52.162;4.500;2022-12-16T11:16:27;101641.22;;;4.44;62.37
72685;BME280;61365;52.162;4.500;2022-12-16T11:19:26;101635.25;;;4.71;59.32
72685;BME280;61365;52.162;4.500;2022-12-16T11:22:19;101648.97;;;4.43;62.34
72685;BME280;61365;52.162;4.500;2022-12-16T11:25:20;101643.63;;;4.62;60.17
72685;BME280;61365;52.162;4.500;2022-12-16T11:28:12;101646.06;;;4.58;60.84
72685;BME280;61365;52.162;4.500;2022-12-16T11:31:04;101652.78;;;4.28;62.48
72685;BME280;61365;52.162;4.500;2022-12-16T11:33:52;101652.84;;;4.54;59.20
72685;BME280;61365;52.162;4.500;2022-12-16T11:36:39;101659.09;;;4.59;58.99
72685;BME280;61365;52.162;4.500;2022-12-16T11:39:26;101653.72;;;4.55;58.42
72685;BME280;61365;52.162;4.500;2022-12-16T11:42:20;101651.41;;;4.38;60.08
72685;BME280;61365;52.162;4.500;2022-12-16T11:45:13;101648.13;;;4.44;59.15
72685;BME280;61365;52.162;4.500;2022-12-16T11:48:30;101653.72;;;4.55;58.26
72685;BME280;61365;52.162;4.500;2022-12-16T11:51:22;101645.03;;;4.30;60.38
72685;BME280;61365;52.162;4.500;2022-12-16T11:54:28;101642.47;;;4.31;59.67
72685;BME280;61365;52.162;4.500;2022-12-16T11:57:24;101644.63;;;4.19;60.84
72685;BME280;61365;52.162;4.500;2022-12-16T12:00:18;101646.84;;;4.32;59.93
72685;BME280;61365;52.162;4.500;2022-12-16T12:03:10;101647.81;;;4.12;60.77
72685;BME280;61365;52.162;4.500;2022-12-16T12:09:19;101643.91;;;4.23;60.24
72685;BME280;61365;52.162;4.500;2022-12-16T12:15:50;101657.34;;;4.35;60.19
72685;BME280;61365;52.162;4.500;2022-12-16T12:18:57;101653.69;;;4.30;61.11
72685;BME280;61365;52.162;4.500;2022-12-16T12:22:00;101665.44;;;4.20;61.06
72685;BME280;61365;52.162;4.500;2022-12-16T12:28:18;101661.19;;;3.77;62.53
72685;BME280;61365;52.162;4.500;2022-12-16T12:34:30;101666.13;;;3.50;64.65
72685;BME280;61365;52.162;4.500;2022-12-16T12:37:33;101674.59;;;4.11;62.10
72685;BME280;61365;52.162;4.500;2022-12-16T12:47:30;101681.84;;;4.19;62.34
72685;BME280;61365;52.162;4.500;2022-12-16T12:50:32;101672.78;;;4.31;60.76
72685;BME280;61365;52.162;4.500;2022-12-16T12:57:05;101687.31;;;4.26;60.50
72685;BME280;61365;52.162;4.500;2022-12-16T13:05:58;101683.81;;;4.02;59.84
72685;BME280;61365;52.162;4.500;2022-12-16T13:11:32;101685.78;;;4.08;60.78
72685;BME280;61365;52.162;4.500;2022-12-16T13:17:18;101690.53;;;3.97;60.52
72685;BME280;61365;52.162;4.500;2022-12-16T13:26:13;101685.94;;;4.13;59.57
72685;BME280;61365;52.162;4.500;2022-12-16T13:32:18;101696.56;;;3.96;61.12
72685;BME280;61365;52.162;4.500;2022-12-16T13:41:05;101699.50;;;4.05;60.67
72685;BME280;61365;52.162;4.500;2022-12-16T13:44:11;101693.25;;;4.00;61.05
72685;BME280;61365;52.162;4.500;2022-12-16T13:46:57;101698.59;;;4.03;60.31
72685;BME280;61365;52.162;4.500;2022-12-16T13:58:36;101703.88;;;4.06;59.99
72685;BME280;61365;52.162;4.500;2022-12-16T14:04:27;101715.19;;;3.86;61.84
72685;BME280;61365;52.162;4.500;2022-12-16T14:07:23;101718.34;;;3.57;63.22
72685;BME280;61365;52.162;4.500;2022-12-16T14:13:22;101729.06;;;3.65;63.85
72685;BME280;61365;52.162;4.500;2022-12-16T14:16:15;101728.75;;;3.57;63.63
72685;BME280;61365;52.162;4.500;2022-12-16T14:19:22;101734.28;;;3.67;63.03
72685;BME280;61365;52.162;4.500;2022-12-16T14:25:24;101740.03;;;3.38;64.52
72685;BME280;61365;52.162;4.500;2022-12-16T14:28:27;101744.81;;;3.29;67.89
72685;BME280;61365;52.162;4.500;2022-12-16T14:31:28;101751.69;;;3.48;66.05
72685;BME280;61365;52.162;4.500;2022-12-16T14:34:20;101755.44;;;3.55;63.89
72685;BME280;61365;52.162;4.500;2022-12-16T14:37:13;101760.75;;;3.58;64.57
72685;BME280;61365;52.162;4.500;2022-12-16T14:40:03;101762.38;;;3.35;65.50
72685;BME280;61365;52.162;4.500;2022-12-16T14:43:02;101765.97;;;3.38;65.71
72685;BME280;61365;52.162;4.500;2022-12-16T14:45:48;101773.59;;;3.55;64.21
72685;BME280;61365;52.162;4.500;2022-12-16T14:48:36;101772.19;;;3.42;63.75
72685;BME280;61365;52.162;4.500;2022-12-16T14:54:26;101776.25;;;3.15;67.23
72685;BME280;61365;52.162;4.500;2022-12-16T14:57:22;101793.28;;;3.30;65.37
72685;BME280;61365;52.162;4.500;2022-12-16T15:00:19;101793.28;;;3.30;65.58
72685;BME280;61365;52.162;4.500;2022-12-16T15:03:45;101798.75;;;3.17;67.48
72685;BME280;61365;52.162;4.500;2022-12-16T15:06:43;101798.75;;;3.17;66.36
72685;BME280;61365;52.162;4.500;2022-12-16T15:09:42;101799.44;;;2.93;69.22
72685;BME280;61365;52.162;4.500;2022-12-16T15:12:39;101803.53;;;3.07;67.03
72685;BME280;61365;52.162;4.500;2022-12-16T15:15:31;101811.56;;;2.94;68.51
72685;BME280;61365;52.162;4.500;2022-12-16T15:18:26;101815.16;;;2.78;70.95
72685;BME280;61365;52.162;4.500;2022-12-16T15:21:24;101820.00;;;2.70;70.28
72685;BME280;61365;52.162;4.500;2022-12-16T15:24:19;101820.28;;;2.76;69.89
72685;BME280;61365;52.162;4.500;2022-12-16T15:30:42;101826.66;;;2.65;70.28
72685;BME280;61365;52.162;4.500;2022-12-16T15:33:34;101835.41;;;2.67;69.55
72685;BME280;61365;52.162;4.500;2022-12-16T15:36:33;101843.03;;;2.64;70.80
72685;BME280;61365;52.162;4.500;2022-12-16T15:39:27;101839.97;;;2.54;70.68
72685;BME280;61365;52.162;4.500;2022-12-16T15:42:24;101836.06;;;2.45;72.07
72685;BME280;61365;52.162;4.500;2022-12-16T15:48:32;101839.69;;;2.48;71.11
72685;BME280;61365;52.162;4.500;2022-12-16T15:54:21;101850.72;;;2.44;73.05
72685;BME280;61365;52.162;4.500;2022-12-16T15:57:28;101857.53;;;2.42;71.81
72685;BME280;61365;52.162;4.500;2022-12-16T16:00:21;101845.19;;;2.36;73.04
72685;BME280;61365;52.162;4.500;2022-12-16T16:03:17;101859.59;;;2.31;72.82
72685;BME280;61365;52.162;4.500;2022-12-16T16:06:19;101857.72;;;2.29;73.62
72685;BME280;61365;52.162;4.500;2022-12-16T16:09:23;101861.97;;;2.27;73.34
72685;BME280;61365;52.162;4.500;2022-12-16T16:12:11;101867.38;;;2.31;74.37
72685;BME280;61365;52.162;4.500;2022-12-16T16:14:57;101867.88;;;2.24;75.02
72685;BME280;61365;52.162;4.500;2022-12-16T16:17:42;101875.41;;;2.19;74.81
72685;BME280;61365;52.162;4.500;2022-12-16T16:20:27;101874.50;;;2.19;76.40
72685;BME280;61365;52.162;4.500;2022-12-16T16:23:12;101888.06;;;2.13;77.74
72685;BME280;61365;52.162;4.500;2022-12-16T16:25:57;101880.22;;;2.12;79.13
72685;BME280;61365;52.162;4.500;2022-12-16T16:28:41;101886.22;;;2.10;80.96
72685;BME280;61365;52.162;4.500;2022-12-16T16:31:27;101879.38;;;1.94;80.29
72685;BME280;61365;52.162;4.500;2022-12-16T16:34:11;101881.31;;;1.99;80.75
72685;BME280;61365;52.162;4.500;2022-12-16T16:36:57;101886.97;;;1.91;80.25
72685;BME280;61365;52.162;4.500;2022-12-16T16:39:43;101883.25;;;1.86;80.17
72685;BME280;61365;52.162;4.500;2022-12-16T16:42:28;101889.06;;;1.82;80.46
72685;BME280;61365;52.162;4.500;2022-12-16T16:45:14;101899.25;;;1.79;82.17
72685;BME280;61365;52.162;4.500;2022-12-16T16:48:10;101891.91;;;1.70;81.79
72685;BME280;61365;52.162;4.500;2022-12-16T16:50:58;101906.81;;;1.58;81.06
72685;BME280;61365;52.162;4.500;2022-12-16T16:53:43;101905.25;;;1.61;82.07
72685;BME280;61365;52.162;4.500;2022-12-16T16:56:32;101910.53;;;1.63;83.08
72685;BME280;61365;52.162;4.500;2022-12-16T16:59:20;101907.44;;;1.54;82.04
72685;BME280;61365;52.162;4.500;2022-12-16T17:02:18;101918.66;;;1.54;82.07